^^
Datos históricos de la estación: Murcia-Puente Tocinos
Diario Informe para Marzo 14, 2019 Unidades:  Inglés    Métrico   Ambas
Diario Semanal Mensual Anual Configurable
  Máximo: Mínimo: Media:
Temperatura: 70.3 °F 49.3 °F 58.3 °F
Punto de rocio: 46 °F 25.5 °F 37.4 °F
Humedad: 77% 19% 50%
Velocidad viento: 10.2mph 0mph 4.7mph
Racha viento: 17.3mph - -
Viento- - SSW
Presión: 30.4 in 30.2 in -
Precipitación: 0 in    
Historical Graphs
 
 
Tabla de datos para Marzo 14, 2019
Hora Temperatura Punto de rocio Presión Viento Velocidad viento Racha viento Humedad Intensidad lluvia(por hora) Nubes
00:00 53.8 °F 45.3 °F 30.3 in ENE 2 mph 5 mph 73% 0 in CLR
00:05 53.8 °F 45.3 °F 30.3 in East 2.9 mph 3.5 mph 73% 0 in CLR
00:10 53.8 °F 45.3 °F 30.3 in East 2.4 mph 2.3 mph 73% 0 in CLR
00:15 53.8 °F 45.3 °F 30.3 in East 2.4 mph   73% 0 in CLR
00:20 53.8 °F 45.3 °F 30.3 in Calm   3.5 mph 73% 0 in CLR
00:25 53.6 °F 45.1 °F 30.3 in Calm   3.5 mph 73% 0 in CLR
00:30 53.4 °F 45 °F 30.3 in East 2 mph 4.6 mph 73% 0 in CLR
00:35 53.4 °F 45 °F 30.3 in East 2 mph   73% 0 in CLR
00:40 53.2 °F 44.8 °F 30.3 in East 1.8 mph 3.5 mph 73% 0 in CLR
00:45 53.2 °F 45.1 °F 30.3 in NW 1.8 mph 3.5 mph 74% 0 in CLR
00:50 53.1 °F 45 °F 30.3 in NW 2 mph 2.3 mph 74% 0 in CLR
00:55 52.9 °F 44.8 °F 30.3 in NW 2 mph 2.3 mph 74% 0 in CLR
01:00 52.9 °F 44.8 °F 30.3 in NW 2 mph 3 mph 74% 0 in CLR
01:05 52.5 °F 44.8 °F 30.3 in NW 1.8 mph 2.3 mph 75% 0 in CLR
01:10 52.5 °F 45.1 °F 30.3 in NW 1.4 mph 3.5 mph 76% 0 in CLR
01:15 52.5 °F 44.8 °F 30.3 in ESE 1.4 mph 4.6 mph 75% 0 in CLR
01:20 52.3 °F 44.6 °F 30.3 in ESE 2.4 mph 2.4 mph 75% 0 in CLR
01:25 52.3 °F 44.6 °F 30.3 in ESE 2.4 mph 4 mph 75% 0 in CLR
01:30 52.3 °F 45 °F 30.3 in SSE 2.9 mph 4.6 mph 76% 0 in CLR
01:35 52.3 °F 45.3 °F 30.3 in South 2.9 mph 6.9 mph 77% 0 in CLR
01:40 52.5 °F 45.5 °F 30.3 in South 4.3 mph 6.9 mph 77% 0 in CLR
01:45 52.5 °F 45.5 °F 30.3 in SSW 4.3 mph 6.2 mph 77% 0 in CLR
01:50 52.5 °F 45.5 °F 30.3 in SSW 4.7 mph 5.8 mph 77% 0 in CLR
01:55 52.7 °F 45.3 °F 30.3 in SW 4.7 mph 5.8 mph 76% 0 in CLR
02:00 52.9 °F 45.1 °F 30.3 in SW 5 mph 6 mph 75% 0 in CLR
02:05 52.7 °F 45 °F 30.3 in SW 4 mph 5.9 mph 75% 0 in CLR
02:10 52.7 °F 45 °F 30.3 in SW 3.6 mph 4.6 mph 75% 0 in CLR
02:15 52.9 °F 45.1 °F 30.3 in SSW 3.6 mph 5.8 mph 75% 0 in CLR
02:20 52.9 °F 45.1 °F 30.3 in SW 4 mph 6.9 mph 75% 0 in CLR
02:25 52.9 °F 45.1 °F 30.3 in SW 4 mph 5.9 mph 75% 0 in CLR
02:30 52.9 °F 45.1 °F 30.3 in SW 4 mph 4.6 mph 75% 0 in CLR
02:35 52.9 °F 45.1 °F 30.3 in WSW 4 mph 4.6 mph 75% 0 in CLR
02:40 52.5 °F 44.8 °F 30.3 in SW 3.6 mph 5.9 mph 75% 0 in CLR
02:45 52.5 °F 44.8 °F 30.3 in SSW 3.6 mph 6.9 mph 75% 0 in CLR
02:50 52.5 °F 44.8 °F 30.3 in SW 4.3 mph 5.8 mph 75% 0 in CLR
02:55 52.5 °F 44.8 °F 30.3 in SW 4.3 mph 5.9 mph 75% 0 in CLR
03:00 52.5 °F 44.8 °F 30.3 in SW 3 mph 9 mph 75% 0 in CLR
03:05 52.3 °F 44.6 °F 30.3 in South 3.6 mph 6.9 mph 75% 0 in CLR
03:10 52.2 °F 44.8 °F 30.3 in SSW 5.4 mph 8.1 mph 76% 0 in CLR
03:15 51.8 °F 44.4 °F 30.3 in SSW 5.4 mph 7.4 mph 76% 0 in CLR
03:20 51.6 °F 44.6 °F 30.3 in SSW 5.9 mph 5.8 mph 77% 0 in CLR
03:25 51.6 °F 44.6 °F 30.3 in SSW 5.9 mph 5.8 mph 77% 0 in CLR
03:30 51.4 °F 44.4 °F 30.3 in SSW 4.7 mph 9.2 mph 77% 0 in CLR
03:35 51.4 °F 44.4 °F 30.3 in SSW 4.7 mph 6.9 mph 77% 0 in CLR
03:40 51.3 °F 44.2 °F 30.3 in South 5.4 mph 8.1 mph 77% 0 in CLR
03:45 51.3 °F 44.2 °F 30.3 in SSW 5.4 mph 8.1 mph 77% 0 in CLR
03:50 51.3 °F 44.2 °F 30.3 in SW 5.4 mph 5.8 mph 77% 0 in CLR
03:55 51.3 °F 44.2 °F 30.3 in SW 5.4 mph 5.8 mph 77% 0 in CLR
04:00 51.3 °F 44.1 °F 30.3 in SSW 5 mph 7 mph 76% 0 in CLR
04:05 51.4 °F 44.1 °F 30.3 in SW 4.7 mph 6.9 mph 76% 0 in CLR
04:10 51.4 °F 44.4 °F 30.3 in South 4.7 mph 4.6 mph 77% 0 in CLR
04:15 51.4 °F 44.4 °F 30.3 in SW 4.7 mph 4.6 mph 77% 0 in CLR
04:20 51.6 °F 44.6 °F 30.3 in WSW 4 mph 4.6 mph 77% 0 in CLR
04:25 51.6 °F 44.2 °F 30.3 in SW 4 mph 5.8 mph 76% 0 in CLR
04:30 51.4 °F 44.4 °F 30.3 in SSW 3.6 mph 4.7 mph 77% 0 in CLR
04:35 51.4 °F 44.4 °F 30.3 in SW 3.6 mph 3.6 mph 77% 0 in CLR
04:40 51.4 °F 44.1 °F 30.3 in SW 3.1 mph 3.5 mph 76% 0 in CLR
04:45 51.4 °F 44.1 °F 30.3 in SW 3.1 mph 3.5 mph 76% 0 in CLR
04:50 51.4 °F 43.9 °F 30.3 in WSW 2 mph 3.5 mph 75% 0 in CLR
04:55 51.4 °F 43.2 °F 30.3 in SSW 2 mph 3.5 mph 73% 0 in CLR
05:00 51.3 °F 43 °F 30.3 in SSW 2 mph 5 mph 73% 0 in CLR
05:05 51.3 °F 43 °F 30.3 in SSW 2.4 mph 2.3 mph 73% 0 in CLR
05:10 51.1 °F 43.2 °F 30.3 in SSW 2 mph 2.3 mph 74% 0 in CLR
05:15 50.5 °F 43 °F 30.3 in SSW 2 mph 2.3 mph 75% 0 in CLR
05:20 50.4 °F 42.6 °F 30.3 in SSW 2 mph 3.5 mph 75% 0 in CLR
05:25 50 °F 42.6 °F 30.3 in SW 2 mph 5.4 mph 76% 0 in CLR
05:30 49.8 °F 42.3 °F 30.3 in SW 2.9 mph 6.9 mph 75% 0 in CLR
05:35 49.8 °F 41.9 °F 30.3 in SW 2.9 mph 6.2 mph 74% 0 in CLR
05:40 50 °F 41.4 °F 30.3 in WSW 4.7 mph 4.7 mph 72% 0 in CLR
05:45 50.2 °F 41.5 °F 30.3 in West 4.7 mph 6.9 mph 72% 0 in CLR
05:50 50 °F 39.7 °F 30.3 in WNW 4 mph 5.8 mph 68% 0 in CLR
05:55 49.8 °F 38.8 °F 30.3 in SW 4 mph 5.8 mph 66% 0 in CLR
06:00 49.8 °F 38.8 °F 30.3 in WSW 3 mph 5 mph 66% 0 in CLR
06:05 49.6 °F 38.7 °F 30.3 in SW 3.1 mph 2.3 mph 66% 0 in CLR
06:10 49.6 °F 39 °F 30.3 in SW 1.8 mph 2.3 mph 67% 0 in CLR
06:15 49.6 °F 39 °F 30.3 in SW 1.8 mph 3.5 mph 67% 0 in CLR
06:20 49.5 °F 39 °F 30.3 in SW 1.8 mph 3.5 mph 67% 0 in CLR
06:25 49.5 °F 39 °F 30.3 in SW 1.8 mph 3.6 mph 67% 0 in CLR
06:30 49.5 °F 39 °F 30.3 in SW 2.4 mph 4.6 mph 67% 0 in CLR
06:35 49.6 °F 37.9 °F 30.3 in SW 2.4 mph 5.8 mph 64% 0 in CLR
06:40 49.8 °F 37.2 °F 30.3 in South 4 mph 4.6 mph 62% 0 in CLR
06:45 50.2 °F 36.3 °F 30.3 in SSE 4 mph 4.6 mph 59% 0 in CLR
06:50 50.4 °F 36.7 °F 30.3 in South 4 mph 5.2 mph 59% 0 in CLR
06:55 50.4 °F 36.1 °F 30.3 in South 4 mph 4.6 mph 58% 0 in CLR
07:00 50.4 °F 35.8 °F 30.3 in South 3 mph 5 mph 57% 0 in CLR
07:05 50.4 °F 35.2 °F 30.3 in South 3.1 mph 3.5 mph 56% 0 in CLR
07:10 50.5 °F 36 °F 30.3 in SE 2.9 mph 4.6 mph 57% 0 in CLR
07:15 50 °F 36.7 °F 30.3 in East 2.9 mph 4.6 mph 60% 0 in CLR
07:20 49.3 °F 36 °F 30.3 in SSE 2.9 mph 5.8 mph 60% 0 in CLR
07:25 49.5 °F 35.2 °F 30.3 in South 2.9 mph 5.8 mph 58% 0 in CLR
07:30 49.6 °F 34.5 °F 30.3 in South 4.3 mph 5.8 mph 56% 0 in CLR
07:35 50.2 °F 34.5 °F 30.3 in South 4.3 mph 4.6 mph 55% 0 in CLR
07:40 50.4 °F 34.3 °F 30.3 in SSW 4 mph 3.5 mph 54% 0 in CLR
07:45 50.7 °F 34.7 °F 30.3 in SSW 4 mph 4.6 mph 54% 0 in CLR
07:50 51.1 °F 34.2 °F 30.3 in SSW 2.4 mph 5.8 mph 52% 0 in CLR
07:55 51.3 °F 33.6 °F 30.3 in SW 2.4 mph 5.8 mph 51% 0 in CLR
08:00 51.4 °F 34 °F 30.3 in SW 3 mph 6 mph 51% 0 in CLR
08:05 51.6 °F 33.1 °F 30.3 in SW 3.6 mph 4.6 mph 49% 0 in CLR
08:10 52 °F 33.4 °F 30.3 in SSW 3.6 mph 5.8 mph 49% 0 in CLR
08:15 52.2 °F 34.2 °F 30.3 in SSW 3.6 mph 1.2 mph 50% 0 in CLR
08:20 52.5 °F 34 °F 30.3 in SSW 2.4 mph 2.3 mph 49% 0 in CLR
08:25 53.1 °F 33.3 °F 30.3 in SW 2.4 mph 4.7 mph 47% 0 in CLR
08:30 53.2 °F 33.1 °F 30.3 in WSW 2.4 mph 5.8 mph 46% 0 in CLR
08:35 53.4 °F 32.5 °F 30.3 in West 2.4 mph 6.9 mph 45% 0 in CLR
08:40 53.6 °F 32.2 °F 30.3 in WSW 4.3 mph 8.1 mph 44% 0 in CLR
08:45 53.8 °F 31.8 °F 30.3 in WSW 4.3 mph 6.9 mph 43% 0 in CLR
08:50 54.1 °F 32.2 °F 30.3 in WSW 4.3 mph 9.2 mph 43% 0 in CLR
08:55 54.1 °F 31.5 °F 30.3 in WSW 4.3 mph 10.4 mph 42% 0 in CLR
09:00 54.3 °F 31.8 °F 30.3 in WSW 6 mph 9 mph 42% 0 in CLR
09:05 54.7 °F 32 °F 30.3 in West 5.4 mph 9.2 mph 42% 0 in CLR
09:10 54.9 °F 32.2 °F 30.3 in WSW 5.9 mph 9.2 mph 42% 0 in CLR
09:15 55.2 °F 31.3 °F 30.3 in West 5.9 mph 11.2 mph 40% 0 in CLR
09:20 55.2 °F 30.7 °F 30.3 in WNW 6.4 mph 16.1 mph 39% 0 in CLR
09:25 55.4 °F 31.5 °F 30.3 in WSW 6.4 mph 8.1 mph 40% 0 in CLR
09:30 55.8 °F 31.3 °F 30.3 in WSW 7.4 mph 10.4 mph 39% 0 in CLR
09:35 55.9 °F 30.7 °F 30.3 in West 7.4 mph 10.4 mph 38% 0 in CLR
09:40 56.3 °F 30.9 °F 30.3 in NW 7.4 mph 9.2 mph 38% 0 in CLR
09:45 56.7 °F 30.7 °F 30.3 in NW 7.4 mph 11.5 mph 37% 0 in CLR
09:50 56.8 °F 30 °F 30.3 in West 7.6 mph 17.3 mph 36% 0 in CLR
09:55 56.8 °F 30.7 °F 30.3 in WNW 7.6 mph 11.5 mph 37% 0 in CLR
10:00 57.2 °F 30.4 °F 30.3 in WNW 9 mph 14 mph 36% 0 in CLR
10:05 57.6 °F 30 °F 30.4 in WNW 9.2 mph 14.5 mph 35% 0 in CLR
10:10 57.7 °F 30.2 °F 30.4 in WNW 8.7 mph 17.3 mph 35% 0 in CLR
10:15 57.9 °F 30.4 °F 30.4 in WNW 8.7 mph 17 mph 35% 0 in CLR
10:20 58.3 °F 30 °F 30.4 in West 10 mph 16.1 mph 34% 0 in CLR
10:25 58.5 °F 30.2 °F 30.4 in WNW 10 mph 16.8 mph 34% 0 in CLR
10:30 58.5 °F 30.2 °F 30.4 in NNE 10.2 mph 12.7 mph 34% 0 in CLR
10:35 58.6 °F 29.7 °F 30.3 in WNW 10.2 mph 17.3 mph 33% 0 in CLR
10:40 58.8 °F 29.7 °F 30.3 in NW 10.2 mph 15 mph 33% 0 in CLR
10:45 58.8 °F 28.9 °F 30.3 in NNW 10.2 mph 13.8 mph 32% 0 in CLR
10:50 58.8 °F 28.9 °F 30.3 in NW 9.2 mph 8.1 mph 32% 0 in CLR
10:55 59.2 °F 29.3 °F 30.3 in West 9.2 mph 10.4 mph 32% 0 in CLR
11:00 59.4 °F 30 °F 30.3 in WNW 7 mph 13 mph 33% 0 in CLR
11:05 59.7 °F 28.9 °F 30.3 in WNW 7.4 mph 9.7 mph 31% 0 in CLR
11:10 59.7 °F 28.2 °F 30.3 in WNW 7.4 mph 6.9 mph 30% 0 in CLR
11:15 59.9 °F 29.1 °F 30.3 in WNW 7.4 mph 13 mph 31% 0 in CLR
11:20 59.7 °F 28.9 °F 30.3 in West 6.2 mph 8.1 mph 31% 0 in CLR
11:25 60.3 °F 29.5 °F 30.3 in WNW 6.2 mph 6.9 mph 31% 0 in CLR
11:30 60.4 °F 28.8 °F 30.3 in NW 5.4 mph 8.7 mph 30% 0 in CLR
11:35 60.4 °F 28.8 °F 30.3 in NW 5.4 mph 6.9 mph 30% 0 in CLR
11:40 60.6 °F 28.9 °F 30.3 in West 5.2 mph 9.2 mph 30% 0 in CLR
11:45 61.2 °F 28.6 °F 30.3 in SW 5.2 mph 9.2 mph 29% 0 in CLR
11:50 61.3 °F 29.7 °F 30.3 in WNW 5.2 mph 11.5 mph 30% 0 in CLR
11:55 61.5 °F 29.8 °F 30.3 in NNE 5.2 mph 6.9 mph 30% 0 in CLR
12:00 62.1 °F 29.5 °F 30.3 in North 6 mph 8 mph 29% 0 in CLR
12:05 62.2 °F 29.7 °F 30.3 in WNW 5.4 mph 5.8 mph 29% 0 in CLR
12:10 62.4 °F 28.9 °F 30.3 in WNW 3.6 mph 2.3 mph 28% 0 in CLR
12:15 62.8 °F 29.1 °F 30.3 in SSW 3.6 mph 4.6 mph 28% 0 in CLR
12:20 63 °F 29.3 °F 30.3 in WNW 3.6 mph 5.8 mph 28% 0 in CLR
12:25 63 °F 29.3 °F 30.3 in WNW 3.6 mph 9.2 mph 28% 0 in CLR
12:30 63 °F 28.4 °F 30.3 in NNW 4.3 mph 6.9 mph 27% 0 in CLR
12:35 63.1 °F 28.6 °F 30.3 in WNW 4.3 mph 4.6 mph 27% 0 in CLR
12:40 63.3 °F 28.8 °F 30.3 in NW 3.6 mph 11.5 mph 27% 0 in CLR
12:45 63.3 °F 28.8 °F 30.3 in SW 3.6 mph 6.4 mph 27% 0 in CLR
12:50 63.7 °F 28.9 °F 30.3 in WNW 5.2 mph 11.5 mph 27% 0 in CLR
12:55 63.7 °F 28 °F 30.3 in NW 5.2 mph 8.7 mph 26% 0 in CLR
13:00 63.7 °F 28 °F 30.3 in WNW 6 mph 12 mph 26% 0 in CLR
13:05 63.9 °F 28.2 °F 30.3 in WNW 6.2 mph 5.8 mph 26% 0 in CLR
13:10 64 °F 28.4 °F 30.3 in WNW 5.4 mph 6.9 mph 26% 0 in CLR
13:15 64.2 °F 28.6 °F 30.3 in NW 5.4 mph 9.2 mph 26% 0 in CLR
13:20 64 °F 27.5 °F 30.3 in WNW 6.2 mph 9.2 mph 25% 0 in CLR
13:25 64 °F 28.4 °F 30.3 in WNW 6.2 mph 5.2 mph 26% 0 in CLR
13:30 64.8 °F 28 °F 30.3 in East 3.1 mph 4.6 mph 25% 0 in CLR
13:35 64.9 °F 28.2 °F 30.3 in NE 3.1 mph 4.6 mph 25% 0 in CLR
13:40 65.3 °F 28.6 °F 30.3 in NW 3.1 mph 4.6 mph 25% 0 in CLR
13:45 65.3 °F 28.6 °F 30.3 in SE 3.1 mph 6.9 mph 25% 0 in CLR
13:50 64.9 °F 28.2 °F 30.3 in SSW 4.3 mph 10.4 mph 25% 0 in CLR
13:55 64.8 °F 28 °F 30.3 in SSW 4.3 mph 10.4 mph 25% 0 in CLR
14:00 64.8 °F 28 °F 30.3 in South 6 mph 11 mph 25% 0 in CLR
14:05 65.1 °F 27.3 °F 30.3 in SSW 6.2 mph 9.2 mph 24% 0 in CLR
14:10 65.7 °F 27.9 °F 30.3 in South 6.2 mph 11.8 mph 24% 0 in CLR
14:15 65.7 °F 27.9 °F 30.3 in SE 6.2 mph 6.9 mph 24% 0 in CLR
14:20 65.7 °F 27.9 °F 30.3 in South 5.2 mph 3.5 mph 24% 0 in CLR
14:25 66.2 °F 28.2 °F 30.3 in West 5.2 mph 6.4 mph 24% 0 in CLR
14:30 66.7 °F 27.7 °F 30.3 in WSW 2 mph 6.4 mph 23% 0 in CLR
14:35 66.9 °F 27.9 °F 30.3 in SW 2 mph 5.8 mph 23% 0 in CLR
14:40 66.9 °F 26.8 °F 30.3 in SSW 4.3 mph 6.9 mph 22% 0 in CLR
14:45 67.1 °F 27 °F 30.3 in South 4.3 mph 8.7 mph 22% 0 in CLR
14:50 66.9 °F 26.8 °F 30.3 in SSE 4.3 mph 9.2 mph 22% 0 in CLR
14:55 66.9 °F 26.8 °F 30.3 in South 4.3 mph 8.1 mph 22% 0 in CLR
15:00 67.1 °F 27 °F 30.3 in SE 6 mph 9 mph 22% 0 in CLR
15:05 67.5 °F 27.1 °F 30.3 in SSE 5.4 mph 4.6 mph 22% 0 in CLR
15:10 67.5 °F 26.1 °F 30.3 in SSE 4 mph 10.4 mph 21% 0 in CLR
15:15 67.3 °F 26.1 °F 30.3 in SE 4 mph 2.3 mph 21% 0 in CLR
15:20 67.6 °F 26.2 °F 30.3 in ENE 4.3 mph 8.1 mph 21% 0 in CLR
15:25 68 °F 26.6 °F 30.3 in ENE 4.3 mph 6.9 mph 21% 0 in CLR
15:30 68.2 °F 26.8 °F 30.3 in NE 4.3 mph 6.9 mph 21% 0 in CLR
15:35 68.2 °F 25.5 °F 30.2 in SE 4.3 mph 8.1 mph 20% 0 in CLR
15:40 68.4 °F 25.7 °F 30.2 in ESE 4 mph 6.9 mph 20% 0 in CLR
15:45 68.2 °F 25.5 °F 30.2 in ENE 4 mph 6.9 mph 20% 0 in CLR
15:50 68.5 °F 25.9 °F 30.2 in South 4.7 mph 6.9 mph 20% 0 in CLR
15:55 69.1 °F 26.2 °F 30.2 in South 4.7 mph 8.1 mph 20% 0 in CLR
16:00 69.1 °F 27.5 °F 30.2 in South 5 mph 8 mph 21% 0 in CLR
16:05 69.8 °F 27 °F 30.2 in WSW 5.2 mph 4.6 mph 20% 0 in CLR
16:10 70 °F 27 °F 30.2 in SSW 2.9 mph 5.8 mph 20% 0 in CLR
16:15 70.3 °F 27.3 °F 30.2 in ESE 2.9 mph 5.8 mph 20% 0 in CLR
16:20 70 °F 27 °F 30.2 in SE 4 mph 8.1 mph 20% 0 in CLR
16:25 70 °F 27 °F 30.2 in East 4 mph 4.6 mph 20% 0 in CLR
16:30 69.8 °F 27 °F 30.2 in NNE 3.6 mph 4.6 mph 20% 0 in CLR
16:35 70.2 °F 27.1 °F 30.2 in East 3.6 mph 2.3 mph 20% 0 in CLR
16:40 70 °F 25.9 °F 30.2 in ESE 2.9 mph 6.9 mph 19% 0 in CLR
16:45 69.6 °F 33.3 °F 30.2 in ESE 2.9 mph 12.7 mph 26% 0 in CLR
16:50 69.1 °F 34.5 °F 30.2 in ESE 6.2 mph 8.1 mph 28% 0 in CLR
16:55 68.5 °F 35.1 °F 30.2 in ESE 6.2 mph 9.2 mph 29% 0 in CLR
17:00 68.4 °F 35.8 °F 30.2 in ESE 8 mph 15 mph 30% 0 in CLR
17:05 68.2 °F 34.7 °F 30.2 in ESE 8.5 mph 10.2 mph 29% 0 in CLR
17:10 68.2 °F 36.3 °F 30.2 in SSE 8.7 mph 17.3 mph 31% 0 in CLR
17:15 67.6 °F 36 °F 30.2 in ESE 8.7 mph 13 mph 31% 0 in CLR
17:20 67.8 °F 36.9 °F 30.2 in East 9.2 mph 12.7 mph 32% 0 in CLR
17:24 67.6 °F 36.7 °F 30.2 in ESE 9.2 mph 9.2 mph 32% 0 in CLR
17:30 67.5 °F 36.7 °F 30.2 in SE 9.2 mph 12.7 mph 32% 0 in CLR
17:34 67.5 °F 37.2 °F 30.2 in ESE 9.2 mph 12.7 mph 33% 0 in CLR
17:40 67.1 °F 37.8 °F 30.2 in East 8.7 mph 13.8 mph 34% 0 in CLR
17:45 66.6 °F 37.9 °F 30.2 in SE 8.7 mph 15 mph 35% 0 in CLR
17:50 66.4 °F 37.9 °F 30.2 in SE 10 mph 11.5 mph 35% 0 in CLR
17:55 66.2 °F 37.8 °F 30.2 in ENE 10 mph 12.7 mph 35% 0 in CLR
18:00 66 °F 37.6 °F 30.2 in ESE 9 mph 14 mph 35% 0 in CLR
18:05 66 °F 37.6 °F 30.2 in ESE 9.7 mph 12.7 mph 35% 0 in CLR
18:10 65.8 °F 38.1 °F 30.2 in ESE 8.5 mph 11.5 mph 36% 0 in CLR
18:15 65.8 °F 37.4 °F 30.2 in SE 8.5 mph 11.5 mph 35% 0 in CLR
18:20 66 °F 39 °F 30.2 in ESE 7.4 mph 10.4 mph 37% 0 in CLR
18:25 65.5 °F 39.9 °F 30.2 in ESE 7.4 mph 12.7 mph 39% 0 in CLR
18:30 65.1 °F 39.6 °F 30.2 in ESE 8.1 mph 11.5 mph 39% 0 in CLR
18:35 64.9 °F 39.4 °F 30.2 in ESE 8.1 mph 8.1 mph 39% 0 in CLR
18:40 64.8 °F 39.2 °F 30.2 in East 6.4 mph 6.9 mph 39% 0 in CLR
18:45 64.8 °F 39.9 °F 30.2 in ESE 6.4 mph 10.4 mph 40% 0 in CLR
18:50 64.4 °F 40.3 °F 30.2 in SE 6.4 mph 8.1 mph 41% 0 in CLR
18:55 64.2 °F 40.6 °F 30.2 in East 6.4 mph 5.8 mph 42% 0 in CLR
19:00 64 °F 40.5 °F 30.2 in ESE 5 mph 7 mph 42% 0 in CLR
19:05 63.9 °F 40.8 °F 30.2 in ESE 5.2 mph 7.4 mph 43% 0 in CLR
19:10 63.5 °F 41.2 °F 30.2 in ESE 5.2 mph 8.1 mph 44% 0 in CLR
19:15 63 °F 41.7 °F 30.2 in SE 5.2 mph 8.1 mph 46% 0 in CLR
19:20 62.8 °F 42.3 °F 30.2 in ESE 5.4 mph 8.5 mph 47% 0 in CLR
19:25 62.4 °F 42.4 °F 30.2 in ESE 5.4 mph 6.9 mph 48% 0 in CLR
19:30 62.2 °F 42.3 °F 30.2 in ESE 5.2 mph 6.9 mph 48% 0 in CLR
19:35 61.9 °F 42.4 °F 30.2 in East 5.2 mph 5.8 mph 49% 0 in CLR
19:40 61.7 °F 43 °F 30.2 in ESE 4.3 mph 5.8 mph 50% 0 in CLR
19:45 61.3 °F 43 °F 30.2 in ESE 4.3 mph 6.9 mph 51% 0 in CLR
19:50 61.2 °F 43.3 °F 30.2 in ESE 4.3 mph 6.9 mph 52% 0 in CLR
19:55 61 °F 43.7 °F 30.2 in SE 4.3 mph 5.8 mph 53% 0 in CLR
20:00 60.8 °F 44.1 °F 30.2 in SE 5 mph 6 mph 54% 0 in CLR
20:05 60.6 °F 43.9 °F 30.3 in East 4.7 mph 4.6 mph 54% 0 in CLR
20:10 60.4 °F 44.2 °F 30.3 in East 2.9 mph 3.6 mph 55% 0 in CLR
20:15 60.3 °F 44.1 °F 30.3 in NW 2.9 mph 4.7 mph 55% 0 in CLR
20:20 60.1 °F 43.3 °F 30.3 in NNW 2.9 mph 5.8 mph 54% 0 in CLR
20:25 59.7 °F 42.1 °F 30.3 in NNW 2.9 mph 4.6 mph 52% 0 in CLR
20:30 59.5 °F 41.4 °F 30.3 in NNW 3.1 mph 4.6 mph 51% 0 in CLR
20:35 59.4 °F 41.2 °F 30.3 in NNW 3.1 mph 3.5 mph 51% 0 in CLR
20:40 59.4 °F 41.2 °F 30.3 in WSW 2 mph 5.4 mph 51% 0 in CLR
20:45 59.4 °F 41.7 °F 30.3 in NW 2 mph 4.6 mph 52% 0 in CLR
20:50 59.2 °F 41.2 °F 30.3 in NW 2.4 mph 2.3 mph 51% 0 in CLR
20:55 59.2 °F 41.5 °F 30.3 in NW 2.4 mph   52% 0 in CLR
21:00 59.2 °F 43 °F 30.3 in WNW 1 mph 6 mph 55% 0 in CLR
21:05 59.4 °F 43.7 °F 30.3 in SW 1.4 mph 6.9 mph 56% 0 in CLR
21:10 59.5 °F 44.2 °F 30.3 in WNW 4 mph 5.8 mph 57% 0 in CLR
21:15 59.5 °F 44.2 °F 30.3 in WSW 4 mph 4.6 mph 57% 0 in CLR
21:20 59.5 °F 44.8 °F 30.3 in WSW 2.9 mph 2.9 mph 58% 0 in CLR
21:25 59.4 °F 44.6 °F 30.3 in WSW 2.9 mph 5.8 mph 58% 0 in CLR
21:30 59.4 °F 45 °F 30.3 in SW 3.1 mph 9.2 mph 59% 0 in CLR
21:35 59.4 °F 45 °F 30.3 in SSW 3.1 mph 11.5 mph 59% 0 in CLR
21:40 59.2 °F 45.3 °F 30.3 in SSW 5.2 mph 8.1 mph 60% 0 in CLR
21:45 59.2 °F 45.3 °F 30.3 in SSW 5.2 mph 5.8 mph 60% 0 in CLR
21:50 59.2 °F 45.3 °F 30.3 in SW 4.7 mph 5.8 mph 60% 0 in CLR
21:55 59 °F 45.7 °F 30.3 in West 4.7 mph 6.9 mph 61% 0 in CLR
22:00 58.8 °F 45.3 °F 30.3 in WSW 5 mph 9 mph 61% 0 in CLR
22:05 58.8 °F 45.9 °F 30.3 in SW 4.3 mph 5.8 mph 62% 0 in CLR
22:10 58.6 °F 46 °F 30.3 in SW 4.7 mph 6.9 mph 63% 0 in CLR
22:15 58.5 °F 45.9 °F 30.3 in SW 4.7 mph 5.8 mph 63% 0 in CLR
22:20 58.5 °F 45.5 °F 30.3 in SSW 4.7 mph 6.2 mph 62% 0 in CLR
22:25 58.5 °F 45.1 °F 30.3 in SSW 4.7 mph 6.9 mph 61% 0 in CLR
22:30 58.3 °F 44.4 °F 30.3 in South 4.7 mph 5.8 mph 60% 0 in CLR
22:35 58.3 °F 44.4 °F 30.3 in SW 4.7 mph 4.6 mph 60% 0 in CLR
22:40 58.1 °F 44.2 °F 30.3 in West 4 mph 5.8 mph 60% 0 in CLR
22:45 57.9 °F 42.8 °F 30.3 in WSW 4 mph 8.1 mph 57% 0 in CLR
22:50 57.7 °F 42.1 °F 30.3 in SW 4.3 mph 6.2 mph 56% 0 in CLR
22:55 57.6 °F 41.5 °F 30.3 in SW 4.3 mph 4.6 mph 55% 0 in CLR
23:00 57.6 °F 42.1 °F 30.3 in SW 3 mph 6 mph 56% 0 in CLR
23:05 57.6 °F 43 °F 30.3 in SSW 3.6 mph 4.7 mph 58% 0 in CLR
23:10 57.4 °F 42.6 °F 30.3 in SW 4 mph 9.7 mph 58% 0 in CLR
23:15 57.2 °F 43 °F 30.3 in SW 4 mph 6.9 mph 59% 0 in CLR
23:20 57 °F 43.3 °F 30.3 in SW 4.3 mph 4.6 mph 60% 0 in CLR
23:25 57 °F 44.1 °F 30.3 in South 4.3 mph 6.9 mph 62% 0 in CLR
23:30 56.8 °F 45.1 °F 30.3 in SSW 4.3 mph 8.1 mph 65% 0 in CLR
23:35 56.5 °F 45.7 °F 30.3 in SW 4.3 mph 8.1 mph 67% 0 in CLR
23:40 56.1 °F 45.7 °F 30.3 in SSW 5.9 mph 9.2 mph 68% 0 in CLR
23:45 55.8 °F 45.3 °F 30.3 in SSW 5.9 mph 11.5 mph 68% 0 in CLR
23:50 55.6 °F 45.7 °F 30.3 in SSW 7.6 mph 10.4 mph 69% 0 in CLR
23:55 55.6 °F 45.7 °F 30.3 in SW 7.6 mph 11.5 mph 69% 0 in CLR
Murcia-Puente Tocinos, España
Compliments of Weather Underground - 2.75 mb

La estación de MeteoMurcia.com, publica sus datos en los siguientes proyectos:

Weather Underground PWS IMURCIAP2 Meteoclimatic www.awekas.at

W3Counter
Web Analytics